Levis, Canada
Current Conditions -  °F | °C
As of 9:00 AM on Sunday 21 Dec 2014 (Local Time) from CYQB Reporting Station
Light Snow Light Snow  
Wind Chill:   Ceiling: 1500
Heat Index: 12°   Visibility: 2mi
Dew Point:   Wind: 6mph
Humidity: 85%   Direction: 360°N
Pressure: 30.39"   Gusts: NA
Location:  46.8°N, 71.18°W
Report Text: CYQB 211400Z 36005KT 2SM -SN OVC015 M11/M13 A3039 RMK SC8 SLP298
Loading
Personal Weather Stations






























Interactive Weather Map New forecast layout! Learn more

10-Day Weather Forecast

Advertisements
Track Severe Weather on mobile